Time;durP1;ratioP1;P1;durP2;ratioP2;P2;SDS_P1;SDS_P2;PMS_P1;PMS_P2;Temp;Humidity;BMP_temperature;BMP_pressure;BME280_temperature;BME280_humidity;BME280_pressure;Samples;Min_cycle;Max_cycle;Signal;HPM_P1;HPM_P2
2021/09/16 00:02:15;;;;;;;3.53;1.00;;;;;;;;;;5042277;28;20377;-73
2021/09/16 00:04:42;;;;;;;2.55;1.00;;;;;;;;;;5049751;28;20084;-70
2021/09/16 00:07:09;;;;;;;3.75;1.20;;;;;;;;;;5032019;28;20049;-73
2021/09/16 00:09:37;;;;;;;7.32;1.33;;;;;;;;;;5050323;28;20560;-72
2021/09/16 00:12:04;;;;;;;7.00;1.10;;;;;;;;;;4931375;28;96470;-68
2021/09/16 00:14:31;;;;;;;4.22;1.00;;;;;;;;;;5050139;28;20033;-68
2021/09/16 00:16:58;;;;;;;5.93;1.17;;;;;;;;;;5032795;28;20041;-63
2021/09/16 00:19:25;;;;;;;5.60;1.20;;;;;;;;;;5051138;28;20033;-71
2021/09/16 00:21:52;;;;;;;10.68;1.30;;;;;;;;;;5048742;28;20418;-64
2021/09/16 00:24:19;;;;;;;4.25;1.00;;;;;;;;;;5049807;28;20052;-67
2021/09/16 00:26:46;;;;;;;4.40;0.93;;;;;;;;;;5047711;28;20030;-68
2021/09/16 00:29:14;;;;;;;5.15;1.20;;;;;;;;;;5040888;28;20033;-64
2021/09/16 00:31:41;;;;;;;4.30;1.20;;;;;;;;;;5031610;28;20034;-64
2021/09/16 00:34:08;;;;;;;3.28;0.90;;;;;;;;;;5029752;28;20029;-64
2021/09/16 00:38:57;;;;;;;1.98;0.95;;;;;;;;;;5156002;27;20670;-63
2021/09/16 00:41:28;;;;;;;2.78;0.90;;;;;;;;;;5153549;27;20031;-62
2021/09/16 00:43:57;;;;;;;8.00;1.33;;;;;;;;;;5153257;27;20118;-61
2021/09/16 00:46:24;;;;;;;10.60;1.33;;;;;;;;;;5133315;27;20038;-62
2021/09/16 00:48:51;;;;;;;4.95;1.13;;;;;;;;;;5066917;27;20041;-63
2021/09/16 00:51:18;;;;;;;8.43;1.05;;;;;;;;;;5058774;28;20111;-62
2021/09/16 00:53:47;;;;;;;7.07;1.45;;;;;;;;;;5079542;28;20063;-61
2021/09/16 00:56:14;;;;;;;7.32;1.20;;;;;;;;;;5072320;28;20032;-63
2021/09/16 00:58:41;;;;;;;6.45;1.45;;;;;;;;;;5081045;28;20139;-63
2021/09/16 01:01:09;;;;;;;3.67;1.50;;;;;;;;;;5074531;28;20032;-62
2021/09/16 01:03:36;;;;;;;4.22;1.20;;;;;;;;;;5081041;28;20105;-63
2021/09/16 01:06:06;;;;;;;3.92;1.20;;;;;;;;;;5084397;28;20118;-64
2021/09/16 01:08:35;;;;;;;5.72;1.40;;;;;;;;;;5078544;28;20032;-62
2021/09/16 01:11:02;;;;;;;4.43;1.30;;;;;;;;;;5085167;28;20048;-62
2021/09/16 01:13:29;;;;;;;3.95;1.17;;;;;;;;;;5073445;28;20032;-62
2021/09/16 01:15:58;;;;;;;2.60;1.15;;;;;;;;;;5089861;28;20062;-62
2021/09/16 01:18:26;;;;;;;7.25;1.58;;;;;;;;;;5089232;28;20047;-63
2021/09/16 01:20:54;;;;;;;3.55;1.25;;;;;;;;;;5089868;28;20363;-63
2021/09/16 01:23:24;;;;;;;4.70;1.00;;;;;;;;;;5090589;28;20378;-63
2021/09/16 01:25:52;;;;;;;5.35;1.70;;;;;;;;;;5086502;28;20377;-63
2021/09/16 01:28:19;;;;;;;3.28;1.15;;;;;;;;;;5073104;28;20143;-63
2021/09/16 01:30:47;;;;;;;4.68;1.92;;;;;;;;;;5071791;28;20033;-63
2021/09/16 01:33:15;;;;;;;1.85;1.00;;;;;;;;;;5067851;28;20033;-63
2021/09/16 01:35:43;;;;;;;4.80;1.20;;;;;;;;;;5070870;28;20470;-62
2021/09/16 01:38:10;;;;;;;2.75;1.20;;;;;;;;;;5071429;28;20364;-63
2021/09/16 01:40:37;;;;;;;2.30;1.10;;;;;;;;;;5050336;28;20037;-63
2021/09/16 01:43:04;;;;;;;2.58;1.15;;;;;;;;;;5069143;28;20437;-62
2021/09/16 01:45:31;;;;;;;2.28;1.52;;;;;;;;;;5051439;28;20071;-62
2021/09/16 01:47:58;;;;;;;5.30;0.93;;;;;;;;;;5050197;28;20436;-63
2021/09/16 01:50:26;;;;;;;2.58;0.98;;;;;;;;;;5035825;28;20064;-62
2021/09/16 01:52:54;;;;;;;2.83;1.20;;;;;;;;;;5056675;28;20383;-63
2021/09/16 01:55:21;;;;;;;3.67;1.00;;;;;;;;;;5042452;28;20383;-62
2021/09/16 01:57:48;;;;;;;2.88;1.05;;;;;;;;;;5063538;28;20028;-62
2021/09/16 02:00:16;;;;;;;3.13;0.90;;;;;;;;;;5060394;28;20082;-62
2021/09/16 02:02:43;;;;;;;1.90;0.93;;;;;;;;;;5063197;28;20055;-62
2021/09/16 02:05:11;;;;;;;4.25;1.00;;;;;;;;;;5061546;28;20043;-62
2021/09/16 02:07:39;;;;;;;1.98;0.90;;;;;;;;;;5064896;28;20094;-62
2021/09/16 02:10:07;;;;;;;2.50;0.95;;;;;;;;;;5068513;28;20047;-63
2021/09/16 02:12:34;;;;;;;4.00;0.90;;;;;;;;;;5071011;28;20093;-63
2021/09/16 02:15:01;;;;;;;3.35;0.80;;;;;;;;;;5067425;28;20029;-62
2021/09/16 02:17:28;;;;;;;2.72;0.90;;;;;;;;;;5066872;28;20031;-61
2021/09/16 02:19:55;;;;;;;4.82;1.13;;;;;;;;;;5074542;28;20111;-62
2021/09/16 02:22:22;;;;;;;3.45;1.17;;;;;;;;;;5076045;28;20081;-62
2021/09/16 02:24:49;;;;;;;3.10;0.85;;;;;;;;;;5075725;28;20044;-62
2021/09/16 02:27:16;;;;;;;2.55;0.95;;;;;;;;;;5041401;28;20036;-62
2021/09/16 02:29:43;;;;;;;2.10;0.88;;;;;;;;;;5075518;28;20433;-62
2021/09/16 02:32:10;;;;;;;2.58;1.00;;;;;;;;;;5075924;28;20036;-62
2021/09/16 02:34:37;;;;;;;2.90;1.00;;;;;;;;;;5076071;28;20029;-63
2021/09/16 02:37:04;;;;;;;2.75;1.10;;;;;;;;;;5045120;28;20048;-62
2021/09/16 02:39:31;;;;;;;3.88;1.10;;;;;;;;;;5059809;28;20483;-62
2021/09/16 02:41:58;;;;;;;3.88;0.90;;;;;;;;;;5059298;28;20111;-62
2021/09/16 02:44:25;;;;;;;2.45;0.90;;;;;;;;;;5074074;28;20067;-63
2021/09/16 02:46:52;;;;;;;3.15;0.90;;;;;;;;;;5074986;28;20036;-63
2021/09/16 02:49:19;;;;;;;2.25;0.90;;;;;;;;;;5074022;28;20054;-62
2021/09/16 02:51:46;;;;;;;2.53;0.98;;;;;;;;;;5075426;28;20040;-62
2021/09/16 02:54:13;;;;;;;3.20;1.02;;;;;;;;;;5075386;28;20032;-62
2021/09/16 02:56:40;;;;;;;3.03;1.05;;;;;;;;;;5048947;28;20396;-62
2021/09/16 02:59:07;;;;;;;2.95;0.95;;;;;;;;;;5047535;28;20397;-62
2021/09/16 03:01:34;;;;;;;2.17;0.90;;;;;;;;;;5048292;28;20037;-63
2021/09/16 03:04:02;;;;;;;4.95;1.15;;;;;;;;;;5069046;28;20028;-62
2021/09/16 03:06:29;;;;;;;2.47;1.00;;;;;;;;;;5073763;28;20033;-62
2021/09/16 03:08:56;;;;;;;2.33;1.13;;;;;;;;;;5056031;28;20091;-64
2021/09/16 03:11:23;;;;;;;2.35;0.90;;;;;;;;;;5054974;28;20028;-63
2021/09/16 03:13:50;;;;;;;5.07;1.10;;;;;;;;;;5054988;28;20127;-65
2021/09/16 03:16:17;;;;;;;2.20;1.02;;;;;;;;;;5073710;28;20059;-64
2021/09/16 03:18:44;;;;;;;2.15;0.70;;;;;;;;;;5073438;28;20032;-62
2021/09/16 03:21:11;;;;;;;3.55;1.10;;;;;;;;;;5074876;28;20036;-61
2021/09/16 03:23:38;;;;;;;4.10;1.00;;;;;;;;;;5057330;28;20028;-62
2021/09/16 03:26:05;;;;;;;3.67;1.00;;;;;;;;;;5073376;28;20378;-63
2021/09/16 03:28:34;;;;;;;2.05;0.80;;;;;;;;;;5039120;28;20136;-62
2021/09/16 03:31:01;;;;;;;3.63;1.05;;;;;;;;;;5072765;28;20431;-62
2021/09/16 03:33:28;;;;;;;3.03;1.05;;;;;;;;;;5073209;28;20033;-63
2021/09/16 03:35:55;;;;;;;3.83;0.80;;;;;;;;;;5073649;28;20078;-63
2021/09/16 03:38:22;;;;;;;2.45;1.05;;;;;;;;;;5074642;28;20051;-63
2021/09/16 03:40:49;;;;;;;2.33;0.85;;;;;;;;;;5073089;28;20037;-63
2021/09/16 03:43:16;;;;;;;2.72;1.00;;;;;;;;;;5074136;28;20032;-61
2021/09/16 03:45:43;;;;;;;2.45;0.98;;;;;;;;;;5072909;28;20036;-63
2021/09/16 03:48:10;;;;;;;3.38;1.00;;;;;;;;;;5073801;28;20375;-63
2021/09/16 03:50:37;;;;;;;3.10;0.93;;;;;;;;;;5074598;28;20028;-63
2021/09/16 03:53:04;;;;;;;4.22;0.63;;;;;;;;;;5071422;28;20025;-63
2021/09/16 03:55:31;;;;;;;2.70;0.90;;;;;;;;;;5056165;28;20029;-63
2021/09/16 03:57:58;;;;;;;2.55;1.02;;;;;;;;;;5073668;28;20063;-61
2021/09/16 04:00:25;;;;;;;2.58;0.88;;;;;;;;;;5054645;28;20462;-61
2021/09/16 04:02:52;;;;;;;3.38;0.95;;;;;;;;;;5073363;28;20143;-61
2021/09/16 04:05:19;;;;;;;2.53;1.00;;;;;;;;;;5072775;28;20042;-63
2021/09/16 04:07:46;;;;;;;5.97;0.85;;;;;;;;;;5071531;28;20036;-62
2021/09/16 04:10:16;;;;;;;2.53;1.10;;;;;;;;;;5074381;28;20470;-63
2021/09/16 04:12:43;;;;;;;1.92;0.77;;;;;;;;;;5072735;28;20040;-61
2021/09/16 04:15:11;;;;;;;2.67;1.00;;;;;;;;;;5071322;28;20033;-62
2021/09/16 04:17:38;;;;;;;2.70;0.85;;;;;;;;;;5072697;28;20098;-61
2021/09/16 04:20:05;;;;;;;2.85;1.00;;;;;;;;;;5074163;28;20447;-61
2021/09/16 04:22:32;;;;;;;4.03;0.90;;;;;;;;;;5055303;28;20036;-61
2021/09/16 04:24:59;;;;;;;3.30;0.98;;;;;;;;;;5072779;28;20040;-61
2021/09/16 04:27:26;;;;;;;3.05;1.10;;;;;;;;;;5072253;28;20421;-62
2021/09/16 04:29:53;;;;;;;3.72;1.13;;;;;;;;;;5072100;28;20039;-62
2021/09/16 04:32:20;;;;;;;2.70;0.85;;;;;;;;;;5073525;28;20034;-62
2021/09/16 04:34:46;;;;;;;2.40;0.80;;;;;;;;;;5072140;28;20531;-62
2021/09/16 04:37:14;;;;;;;3.58;0.90;;;;;;;;;;5072365;28;20083;-63
2021/09/16 04:39:41;;;;;;;2.88;1.05;;;;;;;;;;5072610;28;20032;-62
2021/09/16 04:42:08;;;;;;;4.13;0.88;;;;;;;;;;5055833;28;20036;-62
2021/09/16 04:44:35;;;;;;;2.40;0.80;;;;;;;;;;5073455;28;20043;-62
2021/09/16 04:47:02;;;;;;;3.30;1.10;;;;;;;;;;5073693;28;20032;-62
2021/09/16 04:49:29;;;;;;;3.67;1.10;;;;;;;;;;5072629;28;20035;-62
2021/09/16 04:51:56;;;;;;;3.28;1.23;;;;;;;;;;5073913;28;20447;-62
2021/09/16 04:54:23;;;;;;;3.20;1.02;;;;;;;;;;5073684;28;20032;-62
2021/09/16 04:56:51;;;;;;;3.13;0.95;;;;;;;;;;5073499;28;20093;-62
2021/09/16 04:59:18;;;;;;;3.08;1.00;;;;;;;;;;5073582;28;20115;-62
2021/09/16 05:01:45;;;;;;;3.75;0.98;;;;;;;;;;5071987;28;20067;-62
2021/09/16 05:04:12;;;;;;;3.08;0.98;;;;;;;;;;5073208;28;20478;-62
2021/09/16 05:06:39;;;;;;;2.53;1.10;;;;;;;;;;5072345;28;20462;-63
2021/09/16 05:09:06;;;;;;;4.38;0.80;;;;;;;;;;5039400;28;20033;-62
2021/09/16 05:11:40;;;;;;;2.42;0.90;;;;;;;;;;5073894;28;20028;-62
2021/09/16 05:14:09;;;;;;;3.47;1.17;;;;;;;;;;5073427;28;20121;-62
2021/09/16 05:16:37;;;;;;;3.63;1.00;;;;;;;;;;5073616;28;20023;-62
2021/09/16 05:19:04;;;;;;;1.80;0.93;;;;;;;;;;5071596;28;20037;-62
2021/09/16 05:21:31;;;;;;;1.52;0.70;;;;;;;;;;5073380;28;20037;-62
2021/09/16 05:23:58;;;;;;;2.80;1.75;;;;;;;;;;5072997;28;20035;-61
2021/09/16 05:26:25;;;;;;;1.95;0.80;;;;;;;;;;5077041;28;20038;-61
2021/09/16 05:28:52;;;;;;;2.30;0.85;;;;;;;;;;5076814;28;20046;-62
2021/09/16 05:31:20;;;;;;;2.35;0.80;;;;;;;;;;5076708;28;20359;-62
2021/09/16 05:33:47;;;;;;;2.45;0.80;;;;;;;;;;5076642;28;20241;-62
2021/09/16 05:36:14;;;;;;;3.33;1.15;;;;;;;;;;5075825;28;20042;-61
2021/09/16 05:38:41;;;;;;;2.42;1.13;;;;;;;;;;5076354;28;20198;-62
2021/09/16 05:41:08;;;;;;;2.25;0.88;;;;;;;;;;5076441;28;20033;-62
2021/09/16 05:43:35;;;;;;;3.20;0.80;;;;;;;;;;5075210;28;20503;-62
2021/09/16 05:46:02;;;;;;;3.03;1.33;;;;;;;;;;5076452;28;20032;-62
2021/09/16 05:48:29;;;;;;;1.60;1.00;;;;;;;;;;5076629;28;20085;-62
2021/09/16 05:50:56;;;;;;;2.55;0.90;;;;;;;;;;5075433;28;20119;-61
2021/09/16 05:53:23;;;;;;;1.83;0.80;;;;;;;;;;5076796;28;20040;-62
2021/09/16 05:55:52;;;;;;;1.85;1.15;;;;;;;;;;5073557;28;20074;-61
2021/09/16 05:58:19;;;;;;;1.90;0.90;;;;;;;;;;5076785;28;20048;-62
2021/09/16 06:00:46;;;;;;;3.45;1.15;;;;;;;;;;5075181;28;20028;-62
2021/09/16 06:03:13;;;;;;;2.03;1.02;;;;;;;;;;5075192;28;20036;-62
2021/09/16 06:05:40;;;;;;;2.70;1.10;;;;;;;;;;5073761;28;20449;-62
2021/09/16 06:08:07;;;;;;;2.08;0.82;;;;;;;;;;5075352;28;20402;-62
2021/09/16 06:10:38;;;;;;;1.95;0.98;;;;;;;;;;5073863;28;20039;-62
2021/09/16 06:13:05;;;;;;;3.60;1.13;;;;;;;;;;5071871;28;20115;-62
2021/09/16 06:15:32;;;;;;;6.03;1.20;;;;;;;;;;5065061;28;20036;-62
2021/09/16 06:17:59;;;;;;;2.38;1.05;;;;;;;;;;5074009;28;20451;-62
2021/09/16 06:20:26;;;;;;;4.32;1.13;;;;;;;;;;5075240;28;20044;-62
2021/09/16 06:22:53;;;;;;;1.98;0.95;;;;;;;;;;5058523;28;20040;-62
2021/09/16 06:25:21;;;;;;;3.08;1.10;;;;;;;;;;5057926;28;20036;-63
2021/09/16 06:27:48;;;;;;;2.67;1.23;;;;;;;;;;5076207;28;20414;-62
2021/09/16 06:30:15;;;;;;;2.80;1.10;;;;;;;;;;5075641;28;20037;-62
2021/09/16 06:32:46;;;;;;;2.70;1.25;;;;;;;;;;5070427;28;20040;-62
2021/09/16 06:35:14;;;;;;;2.70;1.17;;;;;;;;;;5065282;28;20078;-62
2021/09/16 06:37:42;;;;;;;4.60;1.38;;;;;;;;;;5074374;28;20408;-61
2021/09/16 06:40:10;;;;;;;3.47;1.10;;;;;;;;;;5075795;28;20024;-61
2021/09/16 06:42:38;;;;;;;2.80;1.38;;;;;;;;;;5075434;28;20040;-61
2021/09/16 06:45:06;;;;;;;3.13;1.33;;;;;;;;;;5074403;28;20036;-61
2021/09/16 06:47:33;;;;;;;3.70;1.20;;;;;;;;;;5074220;28;20047;-61
2021/09/16 06:50:01;;;;;;;2.53;1.05;;;;;;;;;;5075245;28;20060;-61
2021/09/16 06:52:28;;;;;;;3.55;1.52;;;;;;;;;;5055472;28;20394;-61
2021/09/16 06:54:57;;;;;;;3.72;1.17;;;;;;;;;;5065333;28;20031;-62
2021/09/16 06:57:25;;;;;;;3.00;1.20;;;;;;;;;;5075307;28;20362;-61
2021/09/16 06:59:52;;;;;;;2.83;1.42;;;;;;;;;;5075609;28;20036;-62
2021/09/16 07:02:19;;;;;;;3.20;1.33;;;;;;;;;;5075559;28;20039;-62
2021/09/16 07:04:46;;;;;;;2.38;1.00;;;;;;;;;;5074925;28;20031;-62
2021/09/16 07:07:13;;;;;;;3.15;1.20;;;;;;;;;;5075977;28;20079;-62
2021/09/16 07:09:41;;;;;;;2.15;1.00;;;;;;;;;;5075667;28;20040;-62
2021/09/16 07:12:08;;;;;;;2.03;1.00;;;;;;;;;;5073926;28;20152;-62
2021/09/16 07:14:35;;;;;;;3.08;1.20;;;;;;;;;;5065268;28;20471;-62
2021/09/16 07:17:02;;;;;;;3.83;1.23;;;;;;;;;;5072063;28;20024;-62
2021/09/16 07:19:29;;;;;;;7.00;1.10;;;;;;;;;;5073321;28;20124;-62
2021/09/16 07:21:57;;;;;;;4.53;1.48;;;;;;;;;;5074568;28;20474;-63
2021/09/16 07:24:27;;;;;;;5.88;1.35;;;;;;;;;;5072952;28;20032;-62
2021/09/16 07:26:54;;;;;;;2.50;1.25;;;;;;;;;;5056750;28;20352;-62
2021/09/16 07:29:23;;;;;;;3.47;1.40;;;;;;;;;;5073141;28;20093;-61
2021/09/16 07:31:54;;;;;;;4.05;1.65;;;;;;;;;;5074679;28;20036;-62
2021/09/16 07:34:25;;;;;;;4.70;1.83;;;;;;;;;;5068074;28;20413;-61
2021/09/16 07:36:52;;;;;;;4.03;1.52;;;;;;;;;;5067862;28;20048;-62
2021/09/16 07:39:21;;;;;;;4.43;1.83;;;;;;;;;;5073290;28;20033;-62
2021/09/16 07:41:50;;;;;;;4.80;1.90;;;;;;;;;;5073499;28;20058;-62
2021/09/16 07:44:17;;;;;;;5.20;2.00;;;;;;;;;;5074470;28;20043;-62
2021/09/16 07:46:46;;;;;;;8.43;1.90;;;;;;;;;;5073910;28;20166;-62
2021/09/16 07:49:13;;;;;;;4.60;1.70;;;;;;;;;;5074122;28;20036;-62
2021/09/16 07:51:40;;;;;;;5.57;2.92;;;;;;;;;;5073989;28;20043;-62
2021/09/16 07:54:11;;;;;;;6.25;1.90;;;;;;;;;;5069146;28;20556;-62
2021/09/16 07:56:40;;;;;;;4.45;2.30;;;;;;;;;;5057565;28;20044;-62
2021/09/16 07:59:07;;;;;;;4.40;1.80;;;;;;;;;;5074777;28;20347;-62
2021/09/16 08:01:36;;;;;;;3.35;1.42;;;;;;;;;;5056714;28;20044;-62
2021/09/16 08:04:05;;;;;;;4.40;1.92;;;;;;;;;;5074482;28;20037;-61
2021/09/16 08:06:33;;;;;;;3.60;1.67;;;;;;;;;;5074163;28;20036;-62
2021/09/16 08:09:00;;;;;;;4.88;1.80;;;;;;;;;;5073993;28;20127;-61
2021/09/16 08:11:28;;;;;;;5.20;1.80;;;;;;;;;;5071259;28;20037;-62
2021/09/16 08:13:55;;;;;;;5.60;1.70;;;;;;;;;;5070680;28;20036;-62
2021/09/16 08:16:22;;;;;;;6.20;1.92;;;;;;;;;;5064948;28;20037;-62
2021/09/16 08:18:50;;;;;;;5.07;1.85;;;;;;;;;;5073855;28;20036;-62
2021/09/16 08:21:17;;;;;;;5.15;1.92;;;;;;;;;;5073583;28;20139;-61
2021/09/16 08:23:45;;;;;;;3.47;1.70;;;;;;;;;;5055722;28;20051;-62
2021/09/16 08:26:13;;;;;;;4.13;1.88;;;;;;;;;;5056018;28;20044;-61
2021/09/16 08:28:45;;;;;;;3.65;1.58;;;;;;;;;;5072014;28;20041;-61
2021/09/16 08:31:13;;;;;;;3.97;1.65;;;;;;;;;;5073477;28;20044;-62
2021/09/16 08:33:40;;;;;;;4.55;1.65;;;;;;;;;;5073622;28;20038;-62
2021/09/16 08:36:10;;;;;;;4.22;1.60;;;;;;;;;;5072573;28;20036;-61
2021/09/16 08:38:38;;;;;;;6.63;1.60;;;;;;;;;;5061121;28;20375;-61
2021/09/16 08:41:06;;;;;;;3.63;1.90;;;;;;;;;;5072666;28;20062;-61
2021/09/16 08:43:35;;;;;;;3.08;1.63;;;;;;;;;;5060495;28;20041;-62
2021/09/16 08:46:03;;;;;;;8.43;1.73;;;;;;;;;;5068969;28;20029;-61
2021/09/16 08:48:31;;;;;;;8.48;1.88;;;;;;;;;;5074229;28;20044;-62
2021/09/16 08:50:59;;;;;;;6.03;1.90;;;;;;;;;;5073620;28;20056;-61
2021/09/16 08:53:28;;;;;;;4.20;1.92;;;;;;;;;;5074169;28;20114;-62
2021/09/16 08:55:57;;;;;;;3.50;1.83;;;;;;;;;;5073839;28;20067;-62
2021/09/16 08:58:28;;;;;;;4.30;2.15;;;;;;;;;;5060221;28;20418;-67
2021/09/16 09:00:55;;;;;;;6.40;2.53;;;;;;;;;;5074198;28;20379;-62
2021/09/16 09:03:23;;;;;;;4.82;2.03;;;;;;;;;;5058430;28;20033;-62
2021/09/16 09:05:50;;;;;;;5.32;2.10;;;;;;;;;;5036544;28;20966;-62
2021/09/16 09:08:25;;;;;;;4.45;1.92;;;;;;;;;;5068136;28;20034;-62
2021/09/16 09:11:03;;;;;;;4.65;2.13;;;;;;;;;;5075964;28;20029;-62
2021/09/16 09:13:34;;;;;;;4.35;2.00;;;;;;;;;;5077662;28;20036;-62
2021/09/16 09:16:03;;;;;;;3.83;1.90;;;;;;;;;;5058123;28;20032;-61
2021/09/16 09:18:47;;;;;;;2.92;1.52;;;;;;;;;;5077689;28;20035;-61
2021/09/16 09:21:15;;;;;;;;;;;;;;;;;;5053668;28;20128;-62
2021/09/16 09:23:46;;;;;;;3.83;2.08;;;;;;;;;;5055967;28;19912;-62
2021/09/16 09:26:32;;;;;;;6.20;1.80;;;;;;;;;;5069950;28;20035;-62
2021/09/16 09:29:08;;;;;;;5.95;1.70;;;;;;;;;;5075561;28;20035;-62
2021/09/16 09:31:52;;;;;;;4.90;1.92;;;;;;;;;;5062203;28;20029;-62
2021/09/16 09:34:34;;;;;;;8.23;1.92;;;;;;;;;;5061101;28;20039;-62
2021/09/16 09:37:19;;;;;;;3.85;1.77;;;;;;;;;;5077427;28;20135;-62
2021/09/16 09:39:57;;;;;;;4.57;1.88;;;;;;;;;;5077073;28;20409;-63
2021/09/16 09:42:27;;;;;;;4.57;1.80;;;;;;;;;;5072802;28;20425;-62
2021/09/16 09:45:10;;;;;;;11.07;2.35;;;;;;;;;;5065319;28;20032;-63
2021/09/16 09:47:39;;;;;;;4.95;1.73;;;;;;;;;;5050294;28;20068;-62
2021/09/16 09:50:26;;;;;;;5.80;2.00;;;;;;;;;;5075196;28;20035;-62
2021/09/16 09:53:12;;;;;;;5.32;2.00;;;;;;;;;;5056724;28;20451;-62
2021/09/16 09:55:41;;;;;;;7.07;1.77;;;;;;;;;;5076859;28;20025;-62
2021/09/16 09:58:08;;;;;;;5.25;1.80;;;;;;;;;;5075117;28;20111;-62
2021/09/16 10:00:35;;;;;;;6.00;2.15;;;;;;;;;;5076540;28;20036;-62
2021/09/16 10:03:03;;;;;;;6.70;2.15;;;;;;;;;;5070474;28;20037;-62
2021/09/16 10:05:35;;;;;;;8.77;2.42;;;;;;;;;;5048582;28;20037;-62
2021/09/16 10:08:13;;;;;;;5.32;2.10;;;;;;;;;;5056219;28;20045;-62
2021/09/16 10:10:58;;;;;;;4.05;1.88;;;;;;;;;;5052834;28;20121;-62
2021/09/16 10:13:25;;;;;;;5.63;2.03;;;;;;;;;;5054163;28;20127;-62
2021/09/16 10:15:54;;;;;;;4.70;1.98;;;;;;;;;;5035945;28;20116;-64
2021/09/16 10:18:21;;;;;;;6.85;2.20;;;;;;;;;;5058367;28;20474;-63
2021/09/16 10:20:49;;;;;;;6.55;2.10;;;;;;;;;;5066151;28;20028;-63
2021/09/16 10:23:17;;;;;;;5.63;2.25;;;;;;;;;;5066950;28;20093;-66
2021/09/16 10:25:47;;;;;;;6.28;2.00;;;;;;;;;;5062407;28;20528;-63
2021/09/16 10:28:15;;;;;;;6.40;2.03;;;;;;;;;;5059185;28;20029;-63
2021/09/16 10:30:50;;;;;;;6.18;2.35;;;;;;;;;;5061146;28;20211;-63
2021/09/16 10:33:32;;;;;;;4.22;1.77;;;;;;;;;;5056413;28;20493;-62
2021/09/16 10:36:00;;;;;;;5.07;2.30;;;;;;;;;;4901812;28;1410797;-64
2021/09/16 10:38:36;;;;;;;9.43;2.42;;;;;;;;;;4998281;28;105017;-62
2021/09/16 10:41:22;;;;;;;5.03;2.20;;;;;;;;;;5059504;28;20414;-64
2021/09/16 10:43:59;;;;;;;4.95;2.20;;;;;;;;;;5052938;28;20044;-69
